Flight Track Log - Related Links

Times and Time Zones

All times are in EDT time to prevent confusion due to time zone crossing. See the SWA740 flight status page for this flight to view local times or setup timezone preferences in your user account.

Time Position Orientation Groundspeed Altitude Reporting Facility
EDT Latitude Longitude Course Direction KTS MPH feet Rate Location/Type
Wed 11:48:27 PM 33.4333 -112.0333 270° West 165 190 2,100  Level Phoenix TRACON
Wed 11:49:15 PM 33.4333 -112.0833 270° West 202 232 3,700 2,056 Climbing Phoenix TRACON
Wed 11:50:15 PM 33.4833 -112.1167 331° Northwest 272 313 5,800 2,291 Climbing Phoenix TRACON
Wed 11:51:05 PM 33.5358 -112.1397 340° North 285 328 7,900 3,297 Climbing Albuquerque Center
Wed 11:52:06 PM 33.6192 -112.1728 342° North 310 357 11,900 3,984 Climbing Albuquerque Center
Wed 11:53:07 PM 33.7106 -112.2081 342° North 340 391 16,000 4,033 Climbing Albuquerque Center
Wed 11:54:08 PM 33.8083 -112.2478 341° North 362 417 20,100 3,984 Climbing Albuquerque Center
Wed 11:55:09 PM 33.9331 -112.2967 342° North 390 449 24,100 3,393 Climbing Albuquerque Center
Wed 11:56:10 PM 34.0386 -112.3406 341° North 396 456 27,000 1,918 Climbing Albuquerque Center
Wed 11:57:11 PM 34.1439 -112.4067 333° Northwest 420 483 28,000 488 Climbing Albuquerque Center
Wed 11:58:13 PM 34.2503 -112.4728 333° Northwest 424 488 28,000  Level Albuquerque Center
Wed 11:59:13 PM 34.3556 -112.5367 333° Northwest 425 489 28,000 98 Level Albuquerque Center
Thu 12:00:15 AM 34.4586 -112.6025 332° Northwest 421 484 28,200 984 Climbing Albuquerque Center
Thu 12:01:15 AM 34.5708 -112.6728 333° Northwest 421 484 30,000 893 Climbing Albuquerque Center
Thu 12:02:16 AM 34.6439 -112.7789 310° West 418 481 30,000  Level Albuquerque Center
Thu 12:03:17 AM 34.7061 -112.8942 303° West 412 474 30,000  Level Albuquerque Center
Thu 12:04:18 AM 34.7686 -113.0119 303° West 410 472 30,000  Level Albuquerque Center
Thu 12:05:19 AM 34.8317 -113.1269 304° West 410 472 30,000  Level Albuquerque Center
Thu 12:06:20 AM 34.8931 -113.2442 303° West 410 472 30,000  Level Albuquerque Center
Thu 12:07:21 AM 34.9564 -113.3608 304° West 409 471 30,000  Level Albuquerque Center
Thu 12:08:22 AM 35.0183 -113.4769 303° West 409 471 30,000 -98 Level Albuquerque Center
Thu 12:09:23 AM 35.0797 -113.5928 303° West 408 470 29,800 -541 Descending Albuquerque Center
Thu 12:10:24 AM 35.1414 -113.7089 303° West 408 470 28,900 -1,230 Descending Albuquerque Center
Thu 12:11:25 AM 35.2025 -113.8253 303° West 407 468 27,300 -2,213 Descending Albuquerque Center
Thu 12:12:26 AM 35.2678 -113.9411 305° West 408 470 24,400 -2,696 Descending Albuquerque Center
Thu 12:13:43 AM 35.3769 -114.0428 323° Northwest 415 478 21,100 -2,374 Descending Los Angeles Center
Thu 12:14:45 AM 35.4814 -114.1422 322° Northwest 402 463 18,900 -2,244 Descending Los Angeles Center
Thu 12:15:46 AM 35.5597 -114.2144 323° Northwest 365 420 16,500 -2,336 Descending Los Angeles Center
Thu 12:16:38 AM 35.6286 -114.2819 321° Northwest 354 407 14,500 -2,226 Descending Los Angeles Center
Thu 12:16:48 AM 35.6394 -114.2886 333° Northwest 360 414 14,200 -2,400 Descending Los Angeles Center
Thu 12:17:33 AM 35.7025 -114.3497 322° Northwest 356 410 12,300 -2,066 Descending Los Angeles Center
Thu 12:17:49 AM 35.7264 -114.3708 324° Northwest 360 414 12,100 -295 Descending Los Angeles Center
Thu 12:18:34 AM 35.7814 -114.4028 335° Northwest 326 375 12,000 -97 Descending Los Angeles Center
Thu 12:18:51 AM 35.8056 -114.4150 338° Northwest 324 373 12,000  Level Los Angeles Center
Thu 12:19:34 AM 35.8625 -114.4550 330° Northwest 300 345 12,000 -98 Level Los Angeles Center
Thu 12:19:52 AM 35.8736 -114.4744 305° West 315 362 11,900 -1,102 Descending Los Angeles Center
Thu 12:20:23 AM 35.8967 -114.5206 302° West 296 341 11,100 -1,548 Descending Los Angeles Center
Thu 12:20:54 AM 35.9169 -114.5600 302° West 298 343 10,300 -1,562 Descending Los Angeles Center
Thu 12:21:36 AM 35.9497 -114.6225 303° West 286 329 9,200 -1,574 Descending Los Angeles Center
Thu 12:21:55 AM 35.9617 -114.6453 303° West 287 330 8,700 -1,475 Descending Los Angeles Center
Thu 12:22:37 AM 35.9836 -114.7067 294° West 273 314 7,700 -1,161 Descending Los Angeles Center
Thu 12:22:57 AM 35.9933 -114.7336 294° West 273 314 7,500 -900 Descending Los Angeles Center
Thu 12:23:37 AM 36.0056 -114.7872 286° West 235 270 6,800 -729 Descending Los Angeles Center
Thu 12:24:44 AM 36.0308 -114.8719 290° West 229 264 6,200 -729 Descending Los Angeles Center
Thu 12:25:24 AM 36.0436 -114.9142 291° West 197 227 5,500 -984 Descending Los Angeles Center
Thu 12:25:45 AM 36.0494 -114.9375 287° West 186 214 5,200 -968 Descending Los Angeles Center
Thu 12:26:26 AM 36.0611 -114.9747 291° West 190 219 4,500 -985 Descending Los Angeles Center
Thu 12:26:52 AM 36.0683 -115.0031 288° West 187 215 4,100 -1,082 Descending Los Angeles Center
Thu 12:27:27 AM 36.0739 -115.0331 283° West 179 206 3,400 -1,082 Descending Los Angeles Center
Thu 12:27:53 AM 36.0742 -115.0597 271° West 146 168 3,000 -787 Descending Los Angeles Center
Thu 12:28:28 AM 36.0736 -115.0850 268° West 142 163 2,600 -627 Descending Los Angeles Center
Thu 12:29:00 AM 36.0739 -115.1078 271° West 125 144 2,300 -581 Descending Los Angeles Center
Thu 12:29:30 AM 36.0733 -115.1275 268° West 129 148 2,000 -600 Descending Los Angeles Center
Thu 12:31:00 AM 36.0667 -115.1500 270° West  Level FlightAware Approximate

Login

Don't have an account? Register now (free) for customized features, flight alerts, and more!